Monument Valley, Utah
Current Conditions -  °F | °C
As of 7:15 PM on Friday 19 Dec 2014 (Local Time) from KBDG Reporting Station
Clear Clear  
Wind Chill: 24°   Ceiling: Unl
Heat Index: 29°   Visibility: 10mi
Dew Point: 28°   Wind: 5mph
Humidity: 96%   Direction: 320°NW
Pressure: 30.28"   Gusts: NA
Location:  37.1°N, 110.32°W
Report Text: KBDG 200215Z AUTO 32004KT 10SM CLR M02/M02 A3028 RMK AO1 T10161021
Loading
Personal Weather Stations






























Interactive Weather Map New forecast layout! Learn more

10-Day Weather Forecast

Advertisements
Track Severe Weather on mobile